sensor_id;sensor_type;location;lat;lon;timestamp;noise_LAeq;noise_LA_min;noise_LA_max;noise_LA01;noise_LA95
41518;Laerm;27249;48.094;-1.690;2023-10-19T00:00:47;47.80;41.14;58.14;;
41518;Laerm;27249;48.094;-1.690;2023-10-19T00:03:17;43.66;41.30;47.57;;
41518;Laerm;27249;48.094;-1.690;2023-10-19T00:05:43;46.73;41.06;58.21;;
41518;Laerm;27249;48.094;-1.690;2023-10-19T00:08:10;43.59;40.98;45.80;;
41518;Laerm;27249;48.094;-1.690;2023-10-19T00:10:37;43.35;40.62;47.95;;
41518;Laerm;27249;48.094;-1.690;2023-10-19T00:13:03;46.73;41.06;59.44;;
41518;Laerm;27249;48.094;-1.690;2023-10-19T00:15:32;44.82;41.22;53.79;;
41518;Laerm;27249;48.094;-1.690;2023-10-19T00:18:05;43.49;40.71;46.08;;
41518;Laerm;27249;48.094;-1.690;2023-10-19T00:20:45;50.00;41.61;60.74;;
41518;Laerm;27249;48.094;-1.690;2023-10-19T00:23:11;43.88;41.89;49.07;;
41518;Laerm;27249;48.094;-1.690;2023-10-19T00:25:38;43.79;41.22;50.76;;
41518;Laerm;27249;48.094;-1.690;2023-10-19T00:28:06;45.84;41.53;59.49;;
41518;Laerm;27249;48.094;-1.690;2023-10-19T00:30:31;47.78;41.06;60.30;;
41518;Laerm;27249;48.094;-1.690;2023-10-19T00:33:00;46.64;41.61;56.63;;
41518;Laerm;27249;48.094;-1.690;2023-10-19T00:35:29;48.98;41.38;63.10;;
41518;Laerm;27249;48.094;-1.690;2023-10-19T00:38:01;47.18;41.46;64.05;;
41518;Laerm;27249;48.094;-1.690;2023-10-19T00:40:49;46.47;41.14;59.56;;
41518;Laerm;27249;48.094;-1.690;2023-10-19T00:43:25;46.78;42.35;63.29;;
41518;Laerm;27249;48.094;-1.690;2023-10-19T00:45:51;45.73;41.68;58.50;;
41518;Laerm;27249;48.094;-1.690;2023-10-19T00:48:17;45.98;42.09;55.23;;
41518;Laerm;27249;48.094;-1.690;2023-10-19T00:50:42;49.15;42.29;63.37;;
41518;Laerm;27249;48.094;-1.690;2023-10-19T00:53:09;46.38;41.82;57.13;;
41518;Laerm;27249;48.094;-1.690;2023-10-19T00:55:37;44.73;41.55;53.98;;
41518;Laerm;27249;48.094;-1.690;2023-10-19T00:58:03;48.04;41.46;58.52;;
41518;Laerm;27249;48.094;-1.690;2023-10-19T01:00:34;49.81;41.46;64.29;;
41518;Laerm;27249;48.094;-1.690;2023-10-19T01:03:00;43.83;41.46;52.93;;
41518;Laerm;27249;48.094;-1.690;2023-10-19T01:05:26;47.88;40.89;58.37;;
41518;Laerm;27249;48.094;-1.690;2023-10-19T01:07:57;46.91;40.89;58.55;;
41518;Laerm;27249;48.094;-1.690;2023-10-19T01:10:22;45.51;41.38;56.80;;
41518;Laerm;27249;48.094;-1.690;2023-10-19T01:12:48;47.66;40.89;60.30;;
41518;Laerm;27249;48.094;-1.690;2023-10-19T01:15:19;46.81;41.75;54.76;;
41518;Laerm;27249;48.094;-1.690;2023-10-19T01:17:54;45.41;42.16;54.11;;
41518;Laerm;27249;48.094;-1.690;2023-10-19T01:20:29;49.28;42.93;64.18;;
41518;Laerm;27249;48.094;-1.690;2023-10-19T01:22:55;49.40;41.82;58.98;;
41518;Laerm;27249;48.094;-1.690;2023-10-19T01:28:39;47.00;41.14;60.30;;
41518;Laerm;27249;48.094;-1.690;2023-10-19T01:31:09;48.91;41.30;61.79;;
41518;Laerm;27249;48.094;-1.690;2023-10-19T01:33:53;47.88;41.89;60.26;;
41518;Laerm;27249;48.094;-1.690;2023-10-19T01:36:23;50.77;41.96;60.19;;
41518;Laerm;27249;48.094;-1.690;2023-10-19T01:38:48;53.36;41.88;65.96;;
41518;Laerm;27249;48.094;-1.690;2023-10-19T01:41:14;50.37;42.22;64.32;;
41518;Laerm;27249;48.094;-1.690;2023-10-19T01:43:41;46.41;42.35;57.96;;
41518;Laerm;27249;48.094;-1.690;2023-10-19T01:46:07;45.87;41.53;57.83;;
41518;Laerm;27249;48.094;-1.690;2023-10-19T01:48:40;46.91;42.03;56.44;;
41518;Laerm;27249;48.094;-1.690;2023-10-19T01:51:07;46.30;42.65;58.90;;
41518;Laerm;27249;48.094;-1.690;2023-10-19T01:53:36;47.22;41.61;58.97;;
41518;Laerm;27249;48.094;-1.690;2023-10-19T01:56:04;44.94;42.47;59.12;;
41518;Laerm;27249;48.094;-1.690;2023-10-19T01:58:30;50.30;43.09;64.98;;
41518;Laerm;27249;48.094;-1.690;2023-10-19T02:00:56;50.63;43.72;65.68;;
41518;Laerm;27249;48.094;-1.690;2023-10-19T02:03:25;49.37;43.86;61.37;;
41518;Laerm;27249;48.094;-1.690;2023-10-19T02:05:59;48.43;43.63;61.44;;
41518;Laerm;27249;48.094;-1.690;2023-10-19T02:08:32;46.29;43.34;58.55;;
41518;Laerm;27249;48.094;-1.690;2023-10-19T02:10:57;53.64;44.31;63.22;;
41518;Laerm;27249;48.094;-1.690;2023-10-19T02:13:24;53.10;47.67;63.27;;
41518;Laerm;27249;48.094;-1.690;2023-10-19T02:15:49;53.88;47.91;62.59;;
41518;Laerm;27249;48.094;-1.690;2023-10-19T02:18:16;58.34;50.04;65.64;;
41518;Laerm;27249;48.094;-1.690;2023-10-19T02:20:43;56.61;49.83;67.35;;
41518;Laerm;27249;48.094;-1.690;2023-10-19T02:23:13;56.92;49.46;66.30;;
41518;Laerm;27249;48.094;-1.690;2023-10-19T02:25:39;56.10;49.68;63.72;;
41518;Laerm;27249;48.094;-1.690;2023-10-19T02:28:05;54.67;47.65;62.83;;
41518;Laerm;27249;48.094;-1.690;2023-10-19T02:30:32;55.47;45.86;67.67;;
41518;Laerm;27249;48.094;-1.690;2023-10-19T02:32:58;54.86;47.30;63.45;;
41518;Laerm;27249;48.094;-1.690;2023-10-19T02:35:25;60.19;51.75;67.71;;
41518;Laerm;27249;48.094;-1.690;2023-10-19T02:37:50;62.34;54.76;71.14;;
41518;Laerm;27249;48.094;-1.690;2023-10-19T02:40:16;59.32;53.58;66.17;;
41518;Laerm;27249;48.094;-1.690;2023-10-19T02:42:49;58.99;53.26;65.94;;
41518;Laerm;27249;48.094;-1.690;2023-10-19T02:45:18;59.33;52.00;68.56;;
41518;Laerm;27249;48.094;-1.690;2023-10-19T02:47:44;57.11;49.77;66.76;;
41518;Laerm;27249;48.094;-1.690;2023-10-19T02:50:09;56.39;49.99;65.36;;
41518;Laerm;27249;48.094;-1.690;2023-10-19T02:52:47;57.58;48.91;66.23;;
41518;Laerm;27249;48.094;-1.690;2023-10-19T02:55:13;56.98;43.44;68.53;;
41518;Laerm;27249;48.094;-1.690;2023-10-19T02:57:41;51.25;42.79;64.84;;
41518;Laerm;27249;48.094;-1.690;2023-10-19T03:00:06;51.14;42.22;63.93;;
41518;Laerm;27249;48.094;-1.690;2023-10-19T03:02:44;51.75;42.59;67.73;;
41518;Laerm;27249;48.094;-1.690;2023-10-19T03:05:10;45.82;43.09;56.22;;
41518;Laerm;27249;48.094;-1.690;2023-10-19T03:07:43;49.62;42.76;61.40;;
41518;Laerm;27249;48.094;-1.690;2023-10-19T03:10:09;49.71;43.14;63.92;;
41518;Laerm;27249;48.094;-1.690;2023-10-19T03:12:48;53.24;43.14;64.50;;
41518;Laerm;27249;48.094;-1.690;2023-10-19T03:15:14;48.24;43.24;60.78;;
41518;Laerm;27249;48.094;-1.690;2023-10-19T03:17:40;53.17;42.88;66.90;;
41518;Laerm;27249;48.094;-1.690;2023-10-19T03:20:05;53.25;43.29;62.47;;
41518;Laerm;27249;48.094;-1.690;2023-10-19T03:22:36;49.77;42.41;63.07;;
41518;Laerm;27249;48.094;-1.690;2023-10-19T03:25:02;50.16;43.09;60.53;;
41518;Laerm;27249;48.094;-1.690;2023-10-19T03:27:45;47.21;42.35;61.17;;
41518;Laerm;27249;48.094;-1.690;2023-10-19T03:30:11;45.33;42.76;58.20;;
41518;Laerm;27249;48.094;-1.690;2023-10-19T03:32:41;51.45;42.76;62.12;;
41518;Laerm;27249;48.094;-1.690;2023-10-19T03:35:06;49.13;42.59;62.24;;
41518;Laerm;27249;48.094;-1.690;2023-10-19T03:37:31;54.21;43.77;62.72;;
41518;Laerm;27249;48.094;-1.690;2023-10-19T03:40:00;53.11;43.58;63.12;;
41518;Laerm;27249;48.094;-1.690;2023-10-19T03:42:30;54.11;43.90;68.23;;
41518;Laerm;27249;48.094;-1.690;2023-10-19T03:44:57;54.29;43.93;66.73;;
41518;Laerm;27249;48.094;-1.690;2023-10-19T03:47:23;51.70;43.94;61.54;;
41518;Laerm;27249;48.094;-1.690;2023-10-19T03:50:01;53.47;42.93;64.23;;
41518;Laerm;27249;48.094;-1.690;2023-10-19T03:52:28;55.59;43.72;73.26;;
41518;Laerm;27249;48.094;-1.690;2023-10-19T03:54:56;55.57;43.68;66.19;;
41518;Laerm;27249;48.094;-1.690;2023-10-19T03:57:22;50.46;42.29;62.28;;
41518;Laerm;27249;48.094;-1.690;2023-10-19T03:59:49;51.19;42.98;60.62;;
41518;Laerm;27249;48.094;-1.690;2023-10-19T04:02:26;53.48;43.90;61.39;;
41518;Laerm;27249;48.094;-1.690;2023-10-19T04:04:54;50.34;43.09;60.23;;
41518;Laerm;27249;48.094;-1.690;2023-10-19T04:07:20;45.91;43.49;57.25;;
41518;Laerm;27249;48.094;-1.690;2023-10-19T04:09:49;55.35;44.42;63.54;;
41518;Laerm;27249;48.094;-1.690;2023-10-19T04:12:33;54.26;43.86;61.77;;
41518;Laerm;27249;48.094;-1.690;2023-10-19T04:15:00;51.36;43.63;64.68;;
41518;Laerm;27249;48.094;-1.690;2023-10-19T04:17:34;52.50;45.04;63.28;;
41518;Laerm;27249;48.094;-1.690;2023-10-19T04:20:01;57.03;48.84;66.52;;
41518;Laerm;27249;48.094;-1.690;2023-10-19T04:22:34;55.62;45.99;66.71;;
41518;Laerm;27249;48.094;-1.690;2023-10-19T04:25:00;52.01;43.90;61.52;;
41518;Laerm;27249;48.094;-1.690;2023-10-19T04:27:26;55.19;44.07;67.30;;
41518;Laerm;27249;48.094;-1.690;2023-10-19T04:29:51;50.87;44.23;60.27;;
41518;Laerm;27249;48.094;-1.690;2023-10-19T04:32:17;52.57;44.42;63.28;;
41518;Laerm;27249;48.094;-1.690;2023-10-19T04:34:50;54.84;46.73;66.03;;
41518;Laerm;27249;48.094;-1.690;2023-10-19T04:37:15;51.08;44.97;61.23;;
41518;Laerm;27249;48.094;-1.690;2023-10-19T04:39:43;59.06;45.97;74.26;;
41518;Laerm;27249;48.094;-1.690;2023-10-19T04:42:08;53.34;44.94;60.37;;
41518;Laerm;27249;48.094;-1.690;2023-10-19T04:44:33;56.27;46.07;64.35;;
41518;Laerm;27249;48.094;-1.690;2023-10-19T04:46:59;52.31;45.20;60.77;;
41518;Laerm;27249;48.094;-1.690;2023-10-19T04:49:24;56.43;46.05;64.37;;
41518;Laerm;27249;48.094;-1.690;2023-10-19T04:51:50;57.41;45.04;64.94;;
41518;Laerm;27249;48.094;-1.690;2023-10-19T04:54:15;57.18;45.01;65.81;;
41518;Laerm;27249;48.094;-1.690;2023-10-19T04:56:40;56.20;45.86;66.33;;
41518;Laerm;27249;48.094;-1.690;2023-10-19T04:59:05;57.45;46.66;67.26;;
41518;Laerm;27249;48.094;-1.690;2023-10-19T05:01:31;55.51;46.40;63.85;;
41518;Laerm;27249;48.094;-1.690;2023-10-19T05:03:58;57.07;47.16;66.81;;
41518;Laerm;27249;48.094;-1.690;2023-10-19T05:06:24;55.31;46.38;63.82;;
41518;Laerm;27249;48.094;-1.690;2023-10-19T05:08:49;56.13;48.84;64.28;;
41518;Laerm;27249;48.094;-1.690;2023-10-19T05:11:14;55.32;46.87;61.79;;
41518;Laerm;27249;48.094;-1.690;2023-10-19T05:13:39;57.68;47.12;68.12;;
41518;Laerm;27249;48.094;-1.690;2023-10-19T05:16:05;57.45;50.67;63.33;;
41518;Laerm;27249;48.094;-1.690;2023-10-19T05:18:30;58.45;50.71;70.72;;
41518;Laerm;27249;48.094;-1.690;2023-10-19T05:20:55;57.13;48.32;68.44;;
41518;Laerm;27249;48.094;-1.690;2023-10-19T05:23:24;56.87;47.52;64.51;;
41518;Laerm;27249;48.094;-1.690;2023-10-19T05:25:52;55.91;49.08;62.39;;
41518;Laerm;27249;48.094;-1.690;2023-10-19T05:28:18;57.49;50.11;65.24;;
41518;Laerm;27249;48.094;-1.690;2023-10-19T05:30:44;58.88;50.62;64.60;;
41518;Laerm;27249;48.094;-1.690;2023-10-19T05:33:09;58.84;53.14;65.77;;
41518;Laerm;27249;48.094;-1.690;2023-10-19T05:35:34;57.46;49.65;63.01;;
41518;Laerm;27249;48.094;-1.690;2023-10-19T05:38:05;57.89;49.89;63.09;;
41518;Laerm;27249;48.094;-1.690;2023-10-19T05:40:30;58.88;53.16;65.52;;
41518;Laerm;27249;48.094;-1.690;2023-10-19T05:42:56;57.95;51.63;62.01;;
41518;Laerm;27249;48.094;-1.690;2023-10-19T05:45:22;59.09;54.45;65.05;;
41518;Laerm;27249;48.094;-1.690;2023-10-19T05:47:47;57.88;49.56;62.99;;
41518;Laerm;27249;48.094;-1.690;2023-10-19T05:50:12;59.31;53.53;78.90;;
41518;Laerm;27249;48.094;-1.690;2023-10-19T05:52:40;58.78;49.23;65.10;;
41518;Laerm;27249;48.094;-1.690;2023-10-19T05:55:06;58.33;52.03;64.57;;
41518;Laerm;27249;48.094;-1.690;2023-10-19T05:57:31;57.82;51.20;63.96;;
41518;Laerm;27249;48.094;-1.690;2023-10-19T05:59:56;58.38;52.96;67.38;;
41518;Laerm;27249;48.094;-1.690;2023-10-19T06:02:21;58.31;51.08;68.22;;
41518;Laerm;27249;48.094;-1.690;2023-10-19T06:04:47;58.41;53.13;63.18;;
41518;Laerm;27249;48.094;-1.690;2023-10-19T06:07:12;57.56;50.77;64.98;;
41518;Laerm;27249;48.094;-1.690;2023-10-19T06:09:37;58.79;50.87;68.17;;
41518;Laerm;27249;48.094;-1.690;2023-10-19T06:12:03;58.04;53.78;63.83;;
41518;Laerm;27249;48.094;-1.690;2023-10-19T06:14:29;58.03;48.83;62.56;;
41518;Laerm;27249;48.094;-1.690;2023-10-19T06:16:55;58.48;52.26;70.81;;
41518;Laerm;27249;48.094;-1.690;2023-10-19T06:19:21;57.21;51.63;67.86;;
41518;Laerm;27249;48.094;-1.690;2023-10-19T06:21:46;57.90;49.28;63.65;;
41518;Laerm;27249;48.094;-1.690;2023-10-19T06:24:11;58.69;52.50;72.82;;
41518;Laerm;27249;48.094;-1.690;2023-10-19T06:26:40;64.00;53.12;87.04;;
41518;Laerm;27249;48.094;-1.690;2023-10-19T06:29:06;58.27;53.50;67.87;;
41518;Laerm;27249;48.094;-1.690;2023-10-19T06:31:32;58.03;52.58;68.88;;
41518;Laerm;27249;48.094;-1.690;2023-10-19T06:33:57;57.30;52.79;61.03;;
41518;Laerm;27249;48.094;-1.690;2023-10-19T06:36:23;56.80;51.13;62.71;;
41518;Laerm;27249;48.094;-1.690;2023-10-19T06:38:49;56.86;52.21;65.79;;
41518;Laerm;27249;48.094;-1.690;2023-10-19T06:41:16;58.46;52.61;65.74;;
41518;Laerm;27249;48.094;-1.690;2023-10-19T06:43:43;58.41;53.45;63.08;;
41518;Laerm;27249;48.094;-1.690;2023-10-19T06:46:08;58.14;50.52;68.13;;
41518;Laerm;27249;48.094;-1.690;2023-10-19T06:48:36;58.52;53.06;66.09;;
41518;Laerm;27249;48.094;-1.690;2023-10-19T06:51:01;58.74;52.70;65.99;;
41518;Laerm;27249;48.094;-1.690;2023-10-19T06:53:27;58.76;54.16;63.24;;
41518;Laerm;27249;48.094;-1.690;2023-10-19T06:55:52;59.13;53.86;64.69;;
41518;Laerm;27249;48.094;-1.690;2023-10-19T06:58:18;59.41;54.75;64.85;;
41518;Laerm;27249;48.094;-1.690;2023-10-19T07:00:46;58.88;51.99;64.16;;
41518;Laerm;27249;48.094;-1.690;2023-10-19T07:03:21;58.73;52.17;66.81;;
41518;Laerm;27249;48.094;-1.690;2023-10-19T07:05:46;59.60;52.27;72.50;;
41518;Laerm;27249;48.094;-1.690;2023-10-19T07:08:11;59.32;51.57;71.35;;
41518;Laerm;27249;48.094;-1.690;2023-10-19T07:10:37;62.02;55.94;70.84;;
41518;Laerm;27249;48.094;-1.690;2023-10-19T07:13:02;58.73;51.23;75.51;;
41518;Laerm;27249;48.094;-1.690;2023-10-19T07:15:28;59.05;51.97;68.05;;
41518;Laerm;27249;48.094;-1.690;2023-10-19T07:17:54;59.61;54.26;68.67;;
41518;Laerm;27249;48.094;-1.690;2023-10-19T07:20:20;60.13;53.36;68.34;;
41518;Laerm;27249;48.094;-1.690;2023-10-19T07:22:56;58.84;52.07;72.96;;
41518;Laerm;27249;48.094;-1.690;2023-10-19T07:25:22;58.61;52.65;78.35;;
41518;Laerm;27249;48.094;-1.690;2023-10-19T07:27:51;58.05;51.65;63.62;;
41518;Laerm;27249;48.094;-1.690;2023-10-19T07:30:17;59.46;53.30;66.59;;
41518;Laerm;27249;48.094;-1.690;2023-10-19T07:32:47;58.47;52.75;64.45;;
41518;Laerm;27249;48.094;-1.690;2023-10-19T07:35:16;59.88;52.30;68.48;;
41518;Laerm;27249;48.094;-1.690;2023-10-19T07:37:41;59.11;50.29;65.30;;
41518;Laerm;27249;48.094;-1.690;2023-10-19T07:40:08;60.57;54.09;73.15;;
41518;Laerm;27249;48.094;-1.690;2023-10-19T07:42:38;58.13;51.06;65.15;;
41518;Laerm;27249;48.094;-1.690;2023-10-19T07:45:04;57.75;52.72;64.40;;
41518;Laerm;27249;48.094;-1.690;2023-10-19T07:47:29;58.67;53.86;63.93;;
41518;Laerm;27249;48.094;-1.690;2023-10-19T07:49:57;57.45;49.90;71.89;;
41518;Laerm;27249;48.094;-1.690;2023-10-19T07:52:22;58.83;52.05;68.04;;
41518;Laerm;27249;48.094;-1.690;2023-10-19T07:54:48;59.01;51.19;64.73;;
41518;Laerm;27249;48.094;-1.690;2023-10-19T07:57:14;58.16;50.65;65.33;;
41518;Laerm;27249;48.094;-1.690;2023-10-19T07:59:40;58.96;51.26;64.68;;
41518;Laerm;27249;48.094;-1.690;2023-10-19T08:02:07;57.74;52.27;65.76;;
41518;Laerm;27249;48.094;-1.690;2023-10-19T08:04:33;58.87;51.39;70.61;;
41518;Laerm;27249;48.094;-1.690;2023-10-19T08:06:58;58.64;53.31;65.60;;
41518;Laerm;27249;48.094;-1.690;2023-10-19T08:09:24;59.19;54.26;66.29;;
41518;Laerm;27249;48.094;-1.690;2023-10-19T08:11:51;59.26;52.36;66.67;;
41518;Laerm;27249;48.094;-1.690;2023-10-19T08:14:21;58.36;51.32;67.71;;
41518;Laerm;27249;48.094;-1.690;2023-10-19T08:16:46;57.44;50.75;67.59;;
41518;Laerm;27249;48.094;-1.690;2023-10-19T08:19:11;58.56;51.89;70.69;;
41518;Laerm;27249;48.094;-1.690;2023-10-19T08:21:37;58.99;51.30;69.28;;
41518;Laerm;27249;48.094;-1.690;2023-10-19T08:24:02;59.15;50.98;67.63;;
41518;Laerm;27249;48.094;-1.690;2023-10-19T08:26:29;57.56;51.56;64.24;;
41518;Laerm;27249;48.094;-1.690;2023-10-19T08:28:55;58.49;50.99;64.84;;
41518;Laerm;27249;48.094;-1.690;2023-10-19T08:31:20;59.80;53.61;67.86;;
41518;Laerm;27249;48.094;-1.690;2023-10-19T08:33:46;57.98;51.07;67.68;;
41518;Laerm;27249;48.094;-1.690;2023-10-19T08:36:17;58.25;53.91;71.01;;
41518;Laerm;27249;48.094;-1.690;2023-10-19T08:38:44;57.91;52.33;62.27;;
41518;Laerm;27249;48.094;-1.690;2023-10-19T08:41:10;58.35;52.34;64.77;;
41518;Laerm;27249;48.094;-1.690;2023-10-19T08:43:35;58.75;52.83;63.25;;
41518;Laerm;27249;48.094;-1.690;2023-10-19T08:46:04;58.87;52.31;68.73;;
41518;Laerm;27249;48.094;-1.690;2023-10-19T08:48:32;57.51;50.18;64.39;;
41518;Laerm;27249;48.094;-1.690;2023-10-19T08:50:59;58.49;51.85;65.21;;
41518;Laerm;27249;48.094;-1.690;2023-10-19T08:53:25;59.09;50.70;73.22;;
41518;Laerm;27249;48.094;-1.690;2023-10-19T08:55:51;58.65;51.13;65.16;;
41518;Laerm;27249;48.094;-1.690;2023-10-19T08:58:19;58.68;52.37;64.36;;
41518;Laerm;27249;48.094;-1.690;2023-10-19T09:03:12;57.40;49.95;70.44;;
41518;Laerm;27249;48.094;-1.690;2023-10-19T09:05:38;57.23;50.77;63.76;;
41518;Laerm;27249;48.094;-1.690;2023-10-19T09:08:05;57.36;49.03;70.04;;
41518;Laerm;27249;48.094;-1.690;2023-10-19T09:10:31;56.60;48.46;62.91;;
41518;Laerm;27249;48.094;-1.690;2023-10-19T09:13:00;57.74;52.44;65.32;;
41518;Laerm;27249;48.094;-1.690;2023-10-19T09:15:27;56.72;51.30;63.18;;
41518;Laerm;27249;48.094;-1.690;2023-10-19T09:17:53;57.76;50.85;62.65;;
41518;Laerm;27249;48.094;-1.690;2023-10-19T09:20:20;58.30;51.47;65.09;;
41518;Laerm;27249;48.094;-1.690;2023-10-19T09:22:52;58.30;49.47;65.60;;
41518;Laerm;27249;48.094;-1.690;2023-10-19T09:25:17;58.50;50.09;64.59;;
41518;Laerm;27249;48.094;-1.690;2023-10-19T09:27:43;57.92;53.01;64.77;;
41518;Laerm;27249;48.094;-1.690;2023-10-19T09:30:09;59.51;51.65;67.65;;
41518;Laerm;27249;48.094;-1.690;2023-10-19T09:32:37;58.64;51.03;66.15;;
41518;Laerm;27249;48.094;-1.690;2023-10-19T09:35:04;58.54;53.25;67.44;;
41518;Laerm;27249;48.094;-1.690;2023-10-19T09:37:30;58.57;52.64;64.95;;
41518;Laerm;27249;48.094;-1.690;2023-10-19T09:39:56;59.09;53.29;67.99;;
41518;Laerm;27249;48.094;-1.690;2023-10-19T09:42:21;58.71;49.56;64.84;;
41518;Laerm;27249;48.094;-1.690;2023-10-19T09:44:55;58.33;51.06;65.39;;
41518;Laerm;27249;48.094;-1.690;2023-10-19T09:47:29;59.13;52.13;68.86;;
41518;Laerm;27249;48.094;-1.690;2023-10-19T09:49:56;59.68;53.24;72.48;;
41518;Laerm;27249;48.094;-1.690;2023-10-19T09:52:21;57.78;52.27;71.45;;
41518;Laerm;27249;48.094;-1.690;2023-10-19T09:55:00;60.74;53.73;68.79;;
41518;Laerm;27249;48.094;-1.690;2023-10-19T09:57:34;58.55;51.44;74.44;;
41518;Laerm;27249;48.094;-1.690;2023-10-19T10:00:03;59.45;47.72;68.60;;
41518;Laerm;27249;48.094;-1.690;2023-10-19T10:02:33;57.97;51.25;66.74;;
41518;Laerm;27249;48.094;-1.690;2023-10-19T10:04:59;58.77;51.91;66.07;;
41518;Laerm;27249;48.094;-1.690;2023-10-19T10:07:24;57.74;51.19;64.34;;
41518;Laerm;27249;48.094;-1.690;2023-10-19T10:09:50;58.08;50.35;64.01;;
41518;Laerm;27249;48.094;-1.690;2023-10-19T10:15:00;57.99;54.04;63.40;;
41518;Laerm;27249;48.094;-1.690;2023-10-19T10:17:33;57.95;52.12;65.22;;
41518;Laerm;27249;48.094;-1.690;2023-10-19T10:22:39;58.19;50.80;64.44;;
41518;Laerm;27249;48.094;-1.690;2023-10-19T10:25:06;56.89;47.08;63.17;;
41518;Laerm;27249;48.094;-1.690;2023-10-19T10:27:32;58.28;50.54;70.21;;
41518;Laerm;27249;48.094;-1.690;2023-10-19T10:29:59;56.93;51.85;62.85;;
41518;Laerm;27249;48.094;-1.690;2023-10-19T10:32:43;64.46;51.49;80.69;;
41518;Laerm;27249;48.094;-1.690;2023-10-19T10:35:08;56.99;50.66;68.13;;
41518;Laerm;27249;48.094;-1.690;2023-10-19T10:37:36;57.55;51.87;65.06;;
41518;Laerm;27249;48.094;-1.690;2023-10-19T10:40:01;57.68;51.98;66.62;;
41518;Laerm;27249;48.094;-1.690;2023-10-19T10:42:28;57.89;51.42;63.01;;
41518;Laerm;27249;48.094;-1.690;2023-10-19T10:44:54;56.69;48.77;63.58;;
41518;Laerm;27249;48.094;-1.690;2023-10-19T10:47:21;57.62;50.10;69.18;;
41518;Laerm;27249;48.094;-1.690;2023-10-19T10:52:13;58.65;50.28;64.48;;
41518;Laerm;27249;48.094;-1.690;2023-10-19T10:54:38;62.01;55.22;67.87;;
41518;Laerm;27249;48.094;-1.690;2023-10-19T10:57:04;64.58;58.49;70.00;;
41518;Laerm;27249;48.094;-1.690;2023-10-19T10:59:29;66.12;58.20;87.26;;
41518;Laerm;27249;48.094;-1.690;2023-10-19T11:01:55;61.46;52.37;79.02;;
41518;Laerm;27249;48.094;-1.690;2023-10-19T11:04:20;62.68;53.71;69.49;;
41518;Laerm;27249;48.094;-1.690;2023-10-19T11:06:49;60.14;50.04;67.72;;
41518;Laerm;27249;48.094;-1.690;2023-10-19T11:09:15;60.77;52.25;67.48;;
41518;Laerm;27249;48.094;-1.690;2023-10-19T11:11:58;59.05;48.67;69.18;;
41518;Laerm;27249;48.094;-1.690;2023-10-19T11:14:25;60.73;52.01;69.24;;
41518;Laerm;27249;48.094;-1.690;2023-10-19T11:16:50;60.36;49.25;66.62;;
41518;Laerm;27249;48.094;-1.690;2023-10-19T11:19:15;59.56;52.62;65.29;;
41518;Laerm;27249;48.094;-1.690;2023-10-19T11:21:53;60.02;53.02;65.58;;
41518;Laerm;27249;48.094;-1.690;2023-10-19T11:24:25;60.11;53.00;66.92;;
41518;Laerm;27249;48.094;-1.690;2023-10-19T11:26:51;59.45;54.29;65.03;;
41518;Laerm;27249;48.094;-1.690;2023-10-19T11:29:16;60.79;53.47;68.57;;
41518;Laerm;27249;48.094;-1.690;2023-10-19T11:31:41;60.47;53.77;66.74;;
41518;Laerm;27249;48.094;-1.690;2023-10-19T11:34:21;59.91;51.89;65.07;;
41518;Laerm;27249;48.094;-1.690;2023-10-19T11:36:47;59.63;53.19;69.59;;
41518;Laerm;27249;48.094;-1.690;2023-10-19T11:39:17;59.05;50.64;64.62;;
41518;Laerm;27249;48.094;-1.690;2023-10-19T11:41:42;59.58;50.93;67.10;;
41518;Laerm;27249;48.094;-1.690;2023-10-19T11:44:07;59.40;49.29;65.54;;
41518;Laerm;27249;48.094;-1.690;2023-10-19T11:46:33;60.85;56.28;65.19;;
41518;Laerm;27249;48.094;-1.690;2023-10-19T11:48:58;59.73;54.19;65.53;;
41518;Laerm;27249;48.094;-1.690;2023-10-19T11:51:24;59.54;47.88;66.38;;
41518;Laerm;27249;48.094;-1.690;2023-10-19T11:53:49;58.89;53.11;65.62;;
41518;Laerm;27249;48.094;-1.690;2023-10-19T11:56:15;59.98;51.28;64.98;;
41518;Laerm;27249;48.094;-1.690;2023-10-19T11:58:41;60.71;53.90;66.51;;
41518;Laerm;27249;48.094;-1.690;2023-10-19T12:01:07;59.80;48.88;67.27;;
41518;Laerm;27249;48.094;-1.690;2023-10-19T12:03:34;59.31;54.09;65.79;;
41518;Laerm;27249;48.094;-1.690;2023-10-19T12:06:02;58.76;52.98;65.57;;
41518;Laerm;27249;48.094;-1.690;2023-10-19T12:08:29;60.27;54.04;66.48;;
41518;Laerm;27249;48.094;-1.690;2023-10-19T12:10:54;59.86;54.08;67.87;;
41518;Laerm;27249;48.094;-1.690;2023-10-19T12:13:19;59.28;52.17;67.14;;
41518;Laerm;27249;48.094;-1.690;2023-10-19T12:15:45;58.61;48.51;64.38;;
41518;Laerm;27249;48.094;-1.690;2023-10-19T12:18:16;59.27;52.28;66.03;;
41518;Laerm;27249;48.094;-1.690;2023-10-19T12:20:42;58.84;53.22;65.84;;
41518;Laerm;27249;48.094;-1.690;2023-10-19T12:23:10;59.53;48.34;64.95;;
41518;Laerm;27249;48.094;-1.690;2023-10-19T12:25:35;57.61;49.27;65.79;;
41518;Laerm;27249;48.094;-1.690;2023-10-19T12:28:02;58.92;50.34;65.05;;
41518;Laerm;27249;48.094;-1.690;2023-10-19T12:30:29;58.12;51.43;63.74;;
41518;Laerm;27249;48.094;-1.690;2023-10-19T12:33:01;58.32;51.48;64.73;;
41518;Laerm;27249;48.094;-1.690;2023-10-19T12:35:26;57.69;51.22;64.99;;
41518;Laerm;27249;48.094;-1.690;2023-10-19T12:38:12;57.96;51.24;65.20;;
41518;Laerm;27249;48.094;-1.690;2023-10-19T12:40:42;58.37;51.50;67.25;;
41518;Laerm;27249;48.094;-1.690;2023-10-19T12:43:08;67.02;53.33;87.47;;
41518;Laerm;27249;48.094;-1.690;2023-10-19T12:45:33;58.12;51.27;69.71;;
41518;Laerm;27249;48.094;-1.690;2023-10-19T12:48:02;63.10;50.23;79.43;;
41518;Laerm;27249;48.094;-1.690;2023-10-19T12:50:29;56.89;49.82;61.92;;
41518;Laerm;27249;48.094;-1.690;2023-10-19T12:52:55;58.49;51.35;64.96;;
41518;Laerm;27249;48.094;-1.690;2023-10-19T12:55:21;58.17;53.03;62.83;;
41518;Laerm;27249;48.094;-1.690;2023-10-19T12:57:46;57.66;50.03;65.89;;
41518;Laerm;27249;48.094;-1.690;2023-10-19T13:00:11;57.60;51.19;62.70;;
41518;Laerm;27249;48.094;-1.690;2023-10-19T13:02:49;58.63;52.41;73.37;;
41518;Laerm;27249;48.094;-1.690;2023-10-19T13:05:14;57.46;52.38;63.58;;
41518;Laerm;27249;48.094;-1.690;2023-10-19T13:07:43;56.34;47.86;62.72;;
41518;Laerm;27249;48.094;-1.690;2023-10-19T13:10:08;58.23;52.48;72.24;;
41518;Laerm;27249;48.094;-1.690;2023-10-19T13:12:33;57.10;51.89;66.93;;
41518;Laerm;27249;48.094;-1.690;2023-10-19T13:14:59;58.92;52.89;73.55;;
41518;Laerm;27249;48.094;-1.690;2023-10-19T13:17:24;57.17;50.85;74.38;;
41518;Laerm;27249;48.094;-1.690;2023-10-19T13:19:50;58.17;52.47;76.11;;
41518;Laerm;27249;48.094;-1.690;2023-10-19T13:22:19;58.70;49.60;81.71;;
41518;Laerm;27249;48.094;-1.690;2023-10-19T13:24:46;57.68;50.42;71.53;;
41518;Laerm;27249;48.094;-1.690;2023-10-19T13:27:12;57.47;49.00;68.78;;
41518;Laerm;27249;48.094;-1.690;2023-10-19T13:29:37;56.90;50.11;64.10;;
41518;Laerm;27249;48.094;-1.690;2023-10-19T13:32:05;57.15;51.67;63.24;;
41518;Laerm;27249;48.094;-1.690;2023-10-19T13:34:30;57.48;51.98;65.70;;
41518;Laerm;27249;48.094;-1.690;2023-10-19T13:36:55;57.45;50.68;63.69;;
41518;Laerm;27249;48.094;-1.690;2023-10-19T13:39:22;57.03;50.11;63.47;;
41518;Laerm;27249;48.094;-1.690;2023-10-19T13:41:50;57.14;50.63;64.93;;
41518;Laerm;27249;48.094;-1.690;2023-10-19T13:44:15;56.60;50.64;64.32;;
41518;Laerm;27249;48.094;-1.690;2023-10-19T13:46:43;57.46;51.63;62.97;;